Lauderhill, Florida
Current Conditions -  °F | °C
As of 10:53 AM on Friday 24 Oct 2014 (Local Time) from KFXE Reporting Station
Overcast Overcast  
Wind Chill: 78°   Ceiling: 3900
Heat Index: 80°   Visibility: 10mi
Dew Point: 68°   Wind: 12mph
Humidity: 71%   Direction: 60°ENE
Pressure: 29.9"   Gusts: 26mph
Location:  26.2125°N, 80.2701°W
Report Text: KFXE 241453Z 06010G23KT 10SM SCT027 OVC039 26/20 A2990 RMK AO2 SLP126 60000 T02560200 51015
Loading
Personal Weather Stations






























Interactive Weather Map
Tropical Storm Tracking
New forecast layout! Learn more

10-Day Weather Forecast

Advertisements
Track Severe Weather on mobile